Time;durP1;ratioP1;P1;durP2;ratioP2;P2;SDS_P1;SDS_P2;PMS_P1;PMS_P2;Temp;Humidity;BMP_temperature;BMP_pressure;BME280_temperature;BME280_humidity;BME280_pressure;Samples;Min_cycle;Max_cycle;Signal;HPM_P1;HPM_P2
2023/01/07 00:00:22;;;;;;;5.93;1.55;;;18.10;99.90;;;;;;5026809;28;20198;-77
2023/01/07 00:02:54;;;;;;;6.15;1.70;;;18.10;99.90;;;;;;5019843;28;20198;-78
2023/01/07 00:05:25;;;;;;;8.07;2.00;;;18.10;99.90;;;;;;5030178;28;20628;-77
2023/01/07 00:07:56;;;;;;;7.60;1.73;;;18.10;99.90;;;;;;5032212;28;20542;-77
2023/01/07 00:10:27;;;;;;;8.20;1.90;;;18.20;99.90;;;;;;5030116;28;20198;-78
2023/01/07 00:12:57;;;;;;;7.10;1.90;;;18.20;99.90;;;;;;5030099;28;20204;-79
2023/01/07 00:15:30;;;;;;;9.70;2.05;;;18.10;99.90;;;;;;5031468;28;20204;-79
2023/01/07 00:18:01;;;;;;;8.20;1.95;;;18.10;99.90;;;;;;5033119;28;20190;-79
2023/01/07 00:20:32;;;;;;;11.38;1.98;;;18.10;99.90;;;;;;5035929;28;20293;-80
2023/01/07 00:23:03;;;;;;;9.32;2.08;;;18.10;99.90;;;;;;5033130;28;20693;-80
2023/01/07 00:25:33;;;;;;;11.05;1.77;;;18.20;99.90;;;;;;5024125;28;20281;-80
2023/01/07 00:28:04;;;;;;;13.05;1.92;;;18.20;99.90;;;;;;5031744;28;20637;-80
2023/01/07 00:30:37;;;;;;;10.23;1.92;;;18.20;99.90;;;;;;5025708;28;20232;-79
2023/01/07 00:33:12;;;;;;;6.85;1.83;;;18.30;99.90;;;;;;5035810;28;20220;-80
2023/01/07 00:35:43;;;;;;;8.75;2.10;;;18.50;99.90;;;;;;5028946;28;20202;-82
2023/01/07 00:38:14;;;;;;;9.82;2.00;;;18.50;99.90;;;;;;5036070;28;20194;-80
2023/01/07 00:40:45;;;;;;;10.23;1.67;;;18.70;99.90;;;;;;5032838;28;20222;-79
2023/01/07 00:43:16;;;;;;;11.63;2.63;;;18.80;99.90;;;;;;5035809;28;20236;-80
2023/01/07 00:45:48;;;;;;;21.13;11.75;;;19.00;99.90;;;;;;5033924;28;20194;-78
2023/01/07 00:48:20;;;;;;;13.00;4.50;;;19.10;99.90;;;;;;5034508;28;20272;-81
2023/01/07 00:50:52;;;;;;;9.68;3.10;;;19.20;99.90;;;;;;5036278;28;20209;-79
2023/01/07 00:53:23;;;;;;;9.27;1.70;;;19.40;99.90;;;;;;5029064;28;20212;-77
2023/01/07 00:55:55;;;;;;;5.43;1.70;;;19.50;99.90;;;;;;5035836;28;20198;-78
2023/01/07 00:58:27;;;;;;;8.32;2.03;;;19.40;99.90;;;;;;5026337;28;20285;-83
2023/01/07 01:01:02;;;;;;;8.40;1.65;;;19.40;99.90;;;;;;5035392;28;20202;-82
2023/01/07 01:03:33;;;;;;;6.35;1.60;;;19.40;99.90;;;;;;5030145;28;20226;-83
2023/01/07 01:06:06;;;;;;;9.68;1.90;;;19.40;99.90;;;;;;5032250;28;20190;-83
2023/01/07 01:08:37;;;;;;;8.98;2.10;;;19.50;99.90;;;;;;5034633;28;20309;-83
2023/01/07 01:11:09;;;;;;;12.43;1.90;;;19.50;99.90;;;;;;5033895;28;20611;-81
2023/01/07 01:13:40;;;;;;;6.93;1.40;;;19.50;99.90;;;;;;5035712;28;20293;-78
2023/01/07 01:16:16;;;;;;;8.15;1.60;;;19.40;99.90;;;;;;5032336;28;20649;-81
2023/01/07 01:18:47;;;;;;;5.57;1.50;;;19.40;99.90;;;;;;5035493;28;20281;-81
2023/01/07 01:21:18;;;;;;;6.90;1.48;;;19.30;99.90;;;;;;5028335;28;20219;-82
2023/01/07 01:23:49;;;;;;;7.20;1.70;;;19.40;99.90;;;;;;5032684;28;20198;-82
2023/01/07 01:26:20;;;;;;;9.40;1.65;;;19.60;99.90;;;;;;5030915;28;20392;-82
2023/01/07 01:28:51;;;;;;;8.13;1.60;;;19.70;99.90;;;;;;5027180;28;20674;-84
2023/01/07 01:31:23;;;;;;;6.65;1.40;;;19.90;99.90;;;;;;5021367;28;20672;-78
2023/01/07 01:33:56;;;;;;;5.68;1.25;;;19.90;99.90;;;;;;5027174;28;20194;-78
2023/01/07 01:36:27;;;;;;;6.28;1.60;;;19.80;99.90;;;;;;5031665;28;20190;-82
2023/01/07 01:38:58;;;;;;;7.30;1.48;;;20.00;99.90;;;;;;5032706;28;20744;-83
2023/01/07 01:41:29;;;;;;;5.95;1.45;;;20.10;99.90;;;;;;5031750;28;20222;-84
2023/01/07 01:44:00;;;;;;;6.30;1.27;;;20.20;99.90;;;;;;5030326;28;20203;-85
2023/01/07 01:46:37;;;;;;;8.45;1.52;;;20.30;99.90;;;;;;5034680;28;20717;-79
2023/01/07 01:49:19;;;;;;;8.65;1.65;;;20.30;99.90;;;;;;5027706;28;20208;-82
2023/01/07 01:51:59;;;;;;;7.97;1.45;;;20.40;99.90;;;;;;5031763;28;20771;-88
2023/01/07 01:54:30;;;;;;;7.47;1.50;;;20.50;99.90;;;;;;5033910;28;20198;-88
2023/01/07 01:57:03;;;;;;;5.88;1.30;;;20.70;99.90;;;;;;5027780;28;20277;-87
2023/01/07 01:59:37;;;;;;;11.43;1.40;;;20.90;99.90;;;;;;5026054;28;20201;-85
2023/01/07 02:02:10;;;;;;;9.13;1.42;;;21.00;99.90;;;;;;5026113;28;20198;-89
2023/01/07 02:04:41;;;;;;;6.70;1.20;;;21.10;99.90;;;;;;5029953;28;20262;-84
2023/01/07 02:07:15;;;;;;;7.47;1.10;;;21.30;99.90;;;;;;5027198;28;20194;-88
2023/01/07 02:09:46;;;;;;;7.03;1.20;;;21.30;99.90;;;;;;5032519;28;20204;-89
2023/01/07 02:12:24;;;;;;;4.70;1.00;;;21.40;99.90;;;;;;5025056;28;20214;-80
2023/01/07 02:15:09;;;;;;;6.57;1.17;;;21.50;99.90;;;;;;5031516;28;20217;-80
2023/01/07 02:18:03;;;;;;;3.67;0.93;;;21.70;99.90;;;;;;5027645;28;20572;-85
2023/01/07 02:20:45;;;;;;;5.97;1.00;;;22.00;99.90;;;;;;5033155;28;20688;-82
2023/01/07 02:23:43;;;;;;;5.55;1.00;;;22.20;99.90;;;;;;5019336;28;20207;-84
2023/01/07 02:26:43;;;;;;;6.35;1.13;;;22.20;99.90;;;;;;5027195;28;20205;-80
2023/01/07 02:29:53;;;;;;;4.40;1.10;;;22.10;99.90;;;;;;5022634;28;20216;-79
2023/01/07 02:32:44;;;;;;;3.42;1.10;;;22.00;99.90;;;;;;5027776;28;20217;-85
2023/01/07 02:35:28;;;;;;;6.65;1.42;;;22.00;99.90;;;;;;5023303;28;20209;-83
2023/01/07 02:38:09;;;;;;;5.10;1.00;;;22.10;99.90;;;;;;5032004;28;20237;-89
2023/01/07 02:40:51;;;;;;;6.82;1.15;;;22.20;99.90;;;;;;5029304;28;20222;-82
2023/01/07 02:43:31;;;;;;;6.35;1.13;;;22.40;99.90;;;;;;5026740;28;20234;-83
2023/01/07 02:46:10;;;;;;;3.85;0.80;;;22.40;99.90;;;;;;5031248;28;20198;-86
2023/01/07 02:48:43;;;;;;;5.20;0.90;;;22.20;99.90;;;;;;5025928;28;20238;-82
2023/01/07 02:51:14;;;;;;;4.65;1.10;;;22.10;99.90;;;;;;5027718;28;20204;-90
2023/01/07 02:53:48;;;;;;;7.50;1.40;;;22.00;99.90;;;;;;5025792;28;20218;-83
2023/01/07 02:56:31;;;;;;;6.65;1.10;;;21.90;99.90;;;;;;5020619;28;20668;-87
2023/01/07 02:59:28;;;;;;;5.13;1.00;;;21.80;99.90;;;;;;5029756;28;20301;-80
2023/01/07 03:02:22;;;;;;;7.13;1.20;;;21.80;99.90;;;;;;5024276;28;20211;-83
2023/01/07 03:05:24;;;;;;;6.05;0.90;;;21.80;99.90;;;;;;5030059;28;20569;-83
2023/01/07 03:08:12;;;;;;;5.97;1.08;;;21.80;99.90;;;;;;5015886;28;20205;-84
2023/01/07 03:10:47;;;;;;;5.07;1.02;;;22.00;99.90;;;;;;5026191;28;20198;-84
2023/01/07 03:13:22;;;;;;;4.07;0.80;;;22.10;99.90;;;;;;5030721;28;20213;-86
2023/01/07 03:15:59;;;;;;;5.80;1.00;;;22.00;99.90;;;;;;5029429;28;20221;-82
2023/01/07 03:18:34;;;;;;;5.70;1.00;;;22.00;99.90;;;;;;5029342;28;20196;-86
2023/01/07 03:21:11;;;;;;;3.83;0.90;;;22.00;99.90;;;;;;5032744;28;20649;-88
2023/01/07 03:23:46;;;;;;;3.10;0.70;;;22.00;99.90;;;;;;5017186;28;20209;-85
2023/01/07 03:26:20;;;;;;;3.58;0.80;;;22.10;99.90;;;;;;5018822;28;20229;-84
2023/01/07 03:28:53;;;;;;;3.72;1.08;;;22.20;99.90;;;;;;5015923;28;20206;-85
2023/01/07 03:31:24;;;;;;;4.05;0.70;;;22.30;99.90;;;;;;5027764;28;20194;-85
2023/01/07 03:33:58;;;;;;;1.70;0.73;;;22.20;99.90;;;;;;5030211;28;20229;-82
2023/01/07 03:36:35;;;;;;;3.42;0.70;;;22.10;99.90;;;;;;5032826;28;20234;-82
2023/01/07 03:39:09;;;;;;;5.05;0.60;;;22.00;99.90;;;;;;5029560;28;20201;-83
2023/01/07 03:44:27;;;;;;;4.45;0.77;;;21.90;99.90;;;;;;5020328;28;20217;-86
2023/01/07 03:46:59;;;;;;;2.78;0.63;;;21.90;99.90;;;;;;5024974;28;20230;-87
2023/01/07 03:49:30;;;;;;;3.55;0.80;;;21.90;99.90;;;;;;5013345;28;20293;-86
2023/01/07 03:52:03;;;;;;;2.50;0.60;;;22.00;99.90;;;;;;5024244;28;20226;-82
2023/01/07 03:54:34;;;;;;;2.30;0.60;;;22.10;99.90;;;;;;5032689;28;20200;-83
2023/01/07 03:57:05;;;;;;;1.77;0.60;;;22.40;99.90;;;;;;5025618;28;20561;-80
2023/01/07 03:59:35;;;;;;;3.10;0.50;;;22.70;99.90;;;;;;5027399;28;20205;-84
2023/01/07 04:02:06;;;;;;;4.78;0.60;;;22.70;99.90;;;;;;5015303;28;20241;-81
2023/01/07 04:04:37;;;;;;;4.10;0.80;;;22.80;99.90;;;;;;5022822;28;20378;-79
2023/01/07 04:07:10;;;;;;;2.38;0.60;;;22.70;99.90;;;;;;5012975;28;20191;-80
2023/01/07 04:09:41;;;;;;;4.32;0.90;;;22.70;99.90;;;;;;5023691;28;20205;-82
2023/01/07 04:12:12;;;;;;;5.57;0.85;;;22.80;99.90;;;;;;5013142;28;20301;-75
2023/01/07 04:14:42;;;;;;;3.15;0.80;;;22.90;99.90;;;;;;5020601;28;20221;-82
2023/01/07 04:17:13;;;;;;;3.83;0.60;;;22.80;99.90;;;;;;5020978;28;20282;-84
2023/01/07 04:19:44;;;;;;;3.90;0.95;;;22.60;99.90;;;;;;5018279;28;20194;-86
2023/01/07 04:22:17;;;;;;;3.65;0.80;;;22.60;99.90;;;;;;5025115;28;20202;-83
2023/01/07 04:24:47;;;;;;;6.00;0.93;;;22.70;99.90;;;;;;5025438;28;20230;-83
2023/01/07 04:27:19;;;;;;;6.85;1.00;;;22.70;99.90;;;;;;5019103;28;20289;-82
2023/01/07 04:29:49;;;;;;;4.40;0.82;;;22.60;99.90;;;;;;5026248;28;20227;-80
2023/01/07 04:32:20;;;;;;;5.22;1.13;;;22.50;99.90;;;;;;5020310;28;20225;-84
2023/01/07 04:34:51;;;;;;;6.20;1.00;;;22.40;99.90;;;;;;5024316;28;20396;-80
2023/01/07 04:37:23;;;;;;;4.85;0.82;;;22.20;99.90;;;;;;5019490;28;23508;-82
2023/01/07 04:39:54;;;;;;;2.72;0.77;;;22.10;99.90;;;;;;5027085;28;20226;-83
2023/01/07 04:42:25;;;;;;;2.53;0.80;;;22.10;99.90;;;;;;5025131;28;20651;-81
2023/01/07 04:44:56;;;;;;;3.83;0.95;;;22.10;99.90;;;;;;5023887;28;20197;-80
2023/01/07 04:47:26;;;;;;;2.97;0.70;;;22.10;99.90;;;;;;5020505;28;20317;-80
2023/01/07 04:49:57;;;;;;;4.43;0.88;;;22.10;99.90;;;;;;5016082;28;20203;-78
2023/01/07 04:52:30;;;;;;;3.05;0.50;;;22.10;99.90;;;;;;5025233;28;20228;-80
2023/01/07 04:55:01;;;;;;;4.90;0.77;;;22.00;99.90;;;;;;5026799;28;20198;-79
2023/01/07 04:57:31;;;;;;;4.60;0.88;;;22.10;99.90;;;;;;5016836;28;20238;-79
2023/01/07 05:00:02;;;;;;;2.42;0.80;;;22.10;99.90;;;;;;5018672;28;20194;-78
2023/01/07 05:02:33;;;;;;;2.67;0.60;;;22.00;99.90;;;;;;5040674;28;20198;-78
2023/01/07 05:05:04;;;;;;;3.78;0.80;;;21.90;99.90;;;;;;5029302;28;20202;-82
2023/01/07 05:07:36;;;;;;;4.80;0.88;;;22.00;99.90;;;;;;5029763;28;20198;-84
2023/01/07 05:10:10;;;;;;;2.58;0.63;;;22.00;99.90;;;;;;5016190;28;20617;-76
2023/01/07 05:12:41;;;;;;;5.53;0.77;;;22.00;99.90;;;;;;5030466;28;20214;-82
2023/01/07 05:15:12;;;;;;;5.22;1.00;;;22.00;99.90;;;;;;5032663;28;20203;-80
2023/01/07 05:17:43;;;;;;;4.22;0.93;;;22.00;99.90;;;;;;5020518;28;20281;-81
2023/01/07 05:20:14;;;;;;;4.05;0.90;;;22.00;99.90;;;;;;5026933;28;20197;-84
2023/01/07 05:22:48;;;;;;;7.00;1.13;;;21.90;99.90;;;;;;5027493;28;20568;-81
2023/01/07 05:25:19;;;;;;;3.90;0.95;;;21.90;99.90;;;;;;5021637;28;20199;-81
2023/01/07 05:27:50;;;;;;;4.97;1.10;;;21.80;99.90;;;;;;5017340;28;20700;-81
2023/01/07 05:30:21;;;;;;;4.15;0.90;;;21.80;99.90;;;;;;5032530;28;20278;-79
2023/01/07 05:32:51;;;;;;;7.10;1.00;;;21.80;99.90;;;;;;5034563;28;20222;-82
2023/01/07 05:35:22;;;;;;;7.68;0.98;;;21.80;99.90;;;;;;5026907;28;20191;-82
2023/01/07 05:37:55;;;;;;;6.22;1.20;;;21.60;99.90;;;;;;5026573;28;20206;-82
2023/01/07 05:40:26;;;;;;;7.45;1.38;;;21.60;99.90;;;;;;5031026;28;20565;-81
2023/01/07 05:42:56;;;;;;;6.28;1.02;;;21.50;99.90;;;;;;5028941;28;20279;-79
2023/01/07 05:45:27;;;;;;;8.20;1.23;;;21.50;99.90;;;;;;5023155;28;20746;-79
2023/01/07 05:47:58;;;;;;;9.00;1.67;;;21.40;99.90;;;;;;5030337;28;20705;-82
2023/01/07 05:50:30;;;;;;;5.75;1.15;;;21.30;99.90;;;;;;5033057;28;21034;-81
2023/01/07 05:53:02;;;;;;;6.93;1.15;;;21.10;99.90;;;;;;5023825;28;20218;-85
2023/01/07 05:55:33;;;;;;;5.65;1.27;;;21.10;99.90;;;;;;5028810;28;20216;-79
2023/01/07 05:58:04;;;;;;;7.47;1.80;;;21.10;99.90;;;;;;5019528;28;20198;-83
2023/01/07 06:00:35;;;;;;;7.30;1.30;;;21.10;99.90;;;;;;5025325;28;20297;-84
2023/01/07 06:03:06;;;;;;;8.25;1.48;;;21.10;99.90;;;;;;5034920;28;20194;-85
2023/01/07 06:05:37;;;;;;;7.88;1.20;;;21.10;99.90;;;;;;5028728;28;20285;-85
2023/01/07 06:08:09;;;;;;;5.95;1.25;;;21.10;99.90;;;;;;5030139;28;20277;-82
2023/01/07 06:10:40;;;;;;;4.53;1.10;;;21.10;99.90;;;;;;5028472;28;20655;-80
2023/01/07 06:13:11;;;;;;;3.47;0.95;;;21.10;99.90;;;;;;5031551;28;20218;-82
2023/01/07 06:15:42;;;;;;;5.80;1.08;;;21.00;99.90;;;;;;5028083;28;20205;-82
2023/01/07 06:18:13;;;;;;;3.15;0.90;;;21.00;99.90;;;;;;5022888;28;20205;-82
2023/01/07 06:20:43;;;;;;;8.45;1.00;;;20.90;99.90;;;;;;5024731;28;20197;-80
2023/01/07 06:23:16;;;;;;;6.45;1.13;;;20.90;99.90;;;;;;5029644;28;20208;-83
2023/01/07 06:25:47;;;;;;;6.50;1.20;;;20.80;99.90;;;;;;5023037;28;20203;-84
2023/01/07 06:28:18;;;;;;;6.57;1.08;;;20.80;99.90;;;;;;5020573;28;20194;-84
2023/01/07 06:30:49;;;;;;;5.35;0.98;;;20.80;99.90;;;;;;5027203;28;20212;-81
2023/01/07 06:33:20;;;;;;;8.18;1.23;;;20.80;99.90;;;;;;5017986;28;20217;-83
2023/01/07 06:35:50;;;;;;;5.65;1.08;;;20.70;99.90;;;;;;5031036;28;20194;-81
2023/01/07 06:38:23;;;;;;;8.63;1.00;;;20.70;99.90;;;;;;5033055;28;20196;-83
2023/01/07 06:40:54;;;;;;;4.90;0.98;;;20.70;99.90;;;;;;5026563;28;20195;-84
2023/01/07 06:43:25;;;;;;;6.00;0.93;;;20.70;99.90;;;;;;5026412;28;20213;-81
2023/01/07 06:45:55;;;;;;;3.20;1.00;;;20.70;99.90;;;;;;5030711;28;20220;-82
2023/01/07 06:48:26;;;;;;;6.93;1.13;;;20.60;99.90;;;;;;5033852;28;20234;-82
2023/01/07 06:50:57;;;;;;;6.43;1.10;;;20.60;99.90;;;;;;5031038;28;20273;-84
2023/01/07 06:53:30;;;;;;;6.30;1.00;;;20.60;99.90;;;;;;5033955;28;20306;-82
2023/01/07 06:56:00;;;;;;;7.40;1.40;;;20.50;99.90;;;;;;5031828;28;20229;-80
2023/01/07 06:58:31;;;;;;;6.72;1.30;;;20.50;99.90;;;;;;5032842;28;20281;-80
2023/01/07 07:01:06;;;;;;;8.90;1.50;;;20.40;99.90;;;;;;5033944;28;20273;-82
2023/01/07 07:03:37;;;;;;;5.18;1.17;;;20.30;99.90;;;;;;5030084;28;20202;-83
2023/01/07 07:06:08;;;;;;;6.03;1.20;;;20.20;99.90;;;;;;5033821;28;20282;-81
2023/01/07 07:08:41;;;;;;;6.60;1.42;;;20.10;99.90;;;;;;5030750;28;20198;-81
2023/01/07 07:11:12;;;;;;;6.35;1.23;;;20.00;99.90;;;;;;5033859;28;20190;-83
2023/01/07 07:13:42;;;;;;;5.40;1.40;;;19.90;99.90;;;;;;5030870;28;20218;-81
2023/01/07 07:16:13;;;;;;;7.28;1.35;;;19.80;99.90;;;;;;5013931;28;20630;-81
2023/01/07 07:18:44;;;;;;;7.38;1.27;;;19.60;99.90;;;;;;5013619;28;20281;-82
2023/01/07 07:21:15;;;;;;;6.65;1.00;;;19.60;99.90;;;;;;5028670;28;20194;-83
2023/01/07 07:23:47;;;;;;;7.35;1.40;;;19.50;99.90;;;;;;5033924;28;20284;-82
2023/01/07 07:26:18;;;;;;;4.60;1.27;;;19.50;99.90;;;;;;5028450;28;20289;-82
2023/01/07 07:28:49;;;;;;;6.53;1.10;;;19.50;99.90;;;;;;5033484;28;20660;-83
2023/01/07 07:31:20;;;;;;;4.00;0.90;;;19.40;99.90;;;;;;5030107;28;20285;-81
2023/01/07 07:33:50;;;;;;;5.55;1.30;;;19.50;99.90;;;;;;5033056;28;20219;-82
2023/01/07 07:36:21;;;;;;;4.80;1.40;;;19.50;99.90;;;;;;5031656;28;20193;-83
2023/01/07 07:38:54;;;;;;;3.75;1.17;;;19.40;99.90;;;;;;5029373;28;20759;-83
2023/01/07 07:41:25;;;;;;;4.57;1.00;;;19.40;99.90;;;;;;5033281;28;20658;-83
2023/01/07 07:43:56;;;;;;;8.98;1.33;;;19.40;99.90;;;;;;5030136;28;20224;-83
2023/01/07 07:46:26;;;;;;;4.40;1.10;;;19.40;99.90;;;;;;5032825;28;20309;-82
2023/01/07 07:48:57;;;;;;;6.60;1.20;;;19.40;99.90;;;;;;5029721;28;20752;-83
2023/01/07 07:51:28;;;;;;;5.00;1.42;;;19.40;99.90;;;;;;5033454;28;20304;-83
2023/01/07 07:54:01;;;;;;;6.13;1.20;;;19.40;99.90;;;;;;5030378;28;20229;-84
2023/01/07 07:56:32;;;;;;;5.55;1.30;;;19.30;99.90;;;;;;5032450;28;20293;-84
2023/01/07 07:59:02;;;;;;;8.15;1.55;;;19.30;99.90;;;;;;5033254;28;20565;-82
2023/01/07 08:01:33;;;;;;;8.35;1.30;;;19.30;99.90;;;;;;5029855;28;20280;-84
2023/01/07 08:04:04;;;;;;;6.68;1.42;;;19.30;99.90;;;;;;5033014;28;20216;-83
2023/01/07 08:06:35;;;;;;;9.05;1.33;;;19.30;99.90;;;;;;5027039;28;20194;-83
2023/01/07 08:09:07;;;;;;;5.30;1.35;;;19.30;99.90;;;;;;5033235;28;20197;-83
2023/01/07 08:11:38;;;;;;;6.28;1.20;;;19.30;99.90;;;;;;5030086;28;20295;-86
2023/01/07 08:14:09;;;;;;;5.85;1.15;;;19.30;99.90;;;;;;5013134;28;20721;-80
2023/01/07 08:16:40;;;;;;;3.20;1.05;;;19.30;99.90;;;;;;5013177;28;20191;-82
2023/01/07 08:19:11;;;;;;;4.07;1.30;;;19.20;99.90;;;;;;5028268;28;20208;-82
2023/01/07 08:21:42;;;;;;;4.50;1.27;;;19.30;99.90;;;;;;5032878;28;20190;-81
2023/01/07 08:24:15;;;;;;;6.13;1.85;;;19.20;99.90;;;;;;5029627;28;20204;-81
2023/01/07 08:26:46;;;;;;;6.97;1.00;;;19.20;99.90;;;;;;5032768;28;20277;-82
2023/01/07 08:29:16;;;;;;;3.65;1.15;;;19.20;99.90;;;;;;5029345;28;20195;-83
2023/01/07 08:31:47;;;;;;;5.63;1.10;;;19.20;99.90;;;;;;5032118;28;20669;-82
2023/01/07 08:34:18;;;;;;;5.40;1.20;;;19.20;99.90;;;;;;5031218;28;20305;-82
2023/01/07 08:36:49;;;;;;;4.45;1.30;;;19.20;99.90;;;;;;5031935;28;20200;-83
2023/01/07 08:39:21;;;;;;;5.80;1.20;;;19.20;99.90;;;;;;5036376;28;20678;-83
2023/01/07 08:41:52;;;;;;;7.80;1.30;;;19.10;99.90;;;;;;5024082;28;20282;-82
2023/01/07 08:44:23;;;;;;;6.07;1.27;;;19.00;99.90;;;;;;5016715;28;20211;-84
2023/01/07 08:46:55;;;;;;;4.47;1.42;;;19.00;99.90;;;;;;5022919;28;20312;-82
2023/01/07 08:49:26;;;;;;;4.97;1.30;;;19.00;99.90;;;;;;5036510;28;20739;-84
2023/01/07 08:51:57;;;;;;;4.93;1.30;;;18.90;99.90;;;;;;5034021;28;20559;-81
2023/01/07 08:54:30;;;;;;;5.20;1.33;;;18.80;99.90;;;;;;5035160;28;20309;-83
2023/01/07 08:57:03;;;;;;;6.43;1.20;;;18.80;99.90;;;;;;5036326;28;20526;-81
2023/01/07 08:59:34;;;;;;;7.90;1.45;;;18.80;99.90;;;;;;5032783;28;20561;-82
2023/01/07 09:02:05;;;;;;;8.45;1.35;;;18.70;99.90;;;;;;5036244;28;20281;-83
2023/01/07 09:04:36;;;;;;;6.35;1.20;;;18.70;99.90;;;;;;5032846;28;20725;-85
2023/01/07 09:07:06;;;;;;;4.65;1.35;;;18.70;99.90;;;;;;5036006;28;20191;-83
2023/01/07 09:09:40;;;;;;;7.95;1.40;;;18.70;99.90;;;;;;5031002;28;20298;-79
2023/01/07 09:12:11;;;;;;;6.18;1.25;;;18.70;99.90;;;;;;5036102;28;20277;-84
2023/01/07 09:14:42;;;;;;;5.32;1.42;;;18.70;99.90;;;;;;5034937;28;20217;-80
2023/01/07 09:17:12;;;;;;;6.72;1.40;;;18.70;99.90;;;;;;5034140;28;20281;-86
2023/01/07 09:19:43;;;;;;;6.85;1.70;;;18.70;99.90;;;;;;5036257;28;20190;-83
2023/01/07 09:22:17;;;;;;;5.75;1.20;;;18.70;99.90;;;;;;5032404;28;20213;-83
2023/01/07 09:24:50;;;;;;;4.63;1.27;;;18.70;99.90;;;;;;5035788;28;20277;-84
2023/01/07 09:27:21;;;;;;;4.68;1.23;;;18.70;99.90;;;;;;5030587;28;20225;-84
2023/01/07 09:29:52;;;;;;;5.72;1.40;;;18.70;99.90;;;;;;5035533;28;20197;-81
2023/01/07 09:32:23;;;;;;;4.90;1.20;;;18.70;99.90;;;;;;5033354;28;20726;-82
2023/01/07 09:34:53;;;;;;;6.70;1.48;;;18.80;99.90;;;;;;5034530;28;20240;-84
2023/01/07 09:37:24;;;;;;;6.28;1.50;;;18.80;99.90;;;;;;5035474;28;20195;-83
2023/01/07 09:39:59;;;;;;;6.35;1.42;;;18.80;99.90;;;;;;5032276;28;20285;-85
2023/01/07 09:42:38;;;;;;;7.53;1.20;;;18.80;99.90;;;;;;5035281;28;20186;-84
2023/01/07 09:45:18;;;;;;;8.20;1.58;;;18.80;99.90;;;;;;5031511;28;20194;-80
2023/01/07 09:47:52;;;;;;;4.70;1.10;;;18.80;99.90;;;;;;5035290;28;20331;-84
2023/01/07 09:50:41;;;;;;;6.43;1.25;;;18.80;99.90;;;;;;5031853;28;20280;-84
2023/01/07 09:53:17;;;;;;;5.70;1.10;;;18.80;99.90;;;;;;5035175;28;20190;-82
2023/01/07 09:55:52;;;;;;;6.43;1.27;;;18.80;99.90;;;;;;5032619;28;20214;-82
2023/01/07 09:58:24;;;;;;;5.65;1.27;;;18.80;99.90;;;;;;5015231;28;20237;-83
2023/01/07 10:01:06;;;;;;;4.45;1.20;;;18.80;99.90;;;;;;5015221;28;20201;-83
2023/01/07 10:03:51;;;;;;;5.63;1.27;;;18.80;99.90;;;;;;5030734;28;20731;-82
2023/01/07 10:06:30;;;;;;;6.65;1.50;;;18.80;99.90;;;;;;5035035;28;20186;-80
2023/01/07 10:09:09;;;;;;;5.10;1.17;;;18.80;99.90;;;;;;5031650;28;20208;-84
2023/01/07 10:11:54;;;;;;;7.40;1.35;;;18.80;99.90;;;;;;5034635;28;20194;-82
2023/01/07 10:14:50;;;;;;;6.90;1.50;;;18.80;99.90;;;;;;5031701;28;20218;-80
2023/01/07 10:17:29;;;;;;;7.65;1.55;;;18.80;99.90;;;;;;5034698;28;20190;-82
2023/01/07 10:20:06;;;;;;;7.57;1.50;;;18.70;99.90;;;;;;5031482;28;20198;-82
2023/01/07 10:22:40;;;;;;;6.25;1.50;;;18.70;99.90;;;;;;5034695;28;20190;-82
2023/01/07 10:25:21;;;;;;;7.72;1.80;;;18.70;99.90;;;;;;5022881;28;20198;-78
2023/01/07 10:27:56;;;;;;;8.15;2.42;;;18.70;99.90;;;;;;5018820;28;20554;-80
2023/01/07 10:30:30;;;;;;;12.18;2.60;;;18.70;99.90;;;;;;5017860;28;20201;-82
2023/01/07 10:33:17;;;;;;;5.57;1.45;;;18.70;99.90;;;;;;5031376;28;20280;-78
2023/01/07 10:35:50;;;;;;;5.88;1.50;;;18.80;99.90;;;;;;5024687;28;20226;-81
2023/01/07 10:38:22;;;;;;;6.88;1.73;;;18.70;99.90;;;;;;5030707;28;20657;-83
2023/01/07 10:40:56;;;;;;;3.75;1.48;;;18.80;99.90;;;;;;5034068;28;20273;-83
2023/01/07 10:43:41;;;;;;;5.97;1.80;;;18.70;99.90;;;;;;5019192;28;20198;-82
2023/01/07 10:46:26;;;;;;;7.00;2.17;;;18.70;99.90;;;;;;5021137;28;20230;-83
2023/01/07 10:49:32;;;;;;;5.18;1.55;;;18.70;99.90;;;;;;5023378;28;20309;-81
2023/01/07 10:52:14;;;;;;;4.25;1.70;;;18.70;99.90;;;;;;5027126;28;20220;-83
2023/01/07 10:55:06;;;;;;;4.40;1.55;;;18.70;99.90;;;;;;5026503;28;20220;-82
2023/01/07 10:57:38;;;;;;;3.35;1.23;;;18.70;99.90;;;;;;5033075;28;20199;-83
2023/01/07 11:00:16;;;;;;;5.45;1.70;;;18.70;99.90;;;;;;5025232;28;20190;-83
2023/01/07 11:02:48;;;;;;;6.50;1.98;;;18.70;99.90;;;;;;5033884;28;20732;-82
2023/01/07 11:05:20;;;;;;;7.25;2.47;;;18.70;99.90;;;;;;5029550;28;20194;-83
2023/01/07 11:07:53;;;;;;;7.60;2.58;;;18.70;99.90;;;;;;5014017;28;20191;-83
2023/01/07 11:10:27;;;;;;;9.25;2.28;;;18.70;99.90;;;;;;5014406;28;20278;-81
2023/01/07 11:13:01;;;;;;;6.15;1.95;;;18.70;99.90;;;;;;5024206;28;20294;-82
2023/01/07 11:15:37;;;;;;;5.53;1.80;;;18.70;99.90;;;;;;5013623;28;20229;-82
2023/01/07 11:18:13;;;;;;;6.90;1.88;;;18.70;99.90;;;;;;5025956;28;20201;-82
2023/01/07 11:20:48;;;;;;;7.90;1.58;;;18.70;99.90;;;;;;5033293;28;20670;-81
2023/01/07 11:23:31;;;;;;;6.55;1.50;;;18.70;99.90;;;;;;5023125;28;20277;-83
2023/01/07 11:26:18;;;;;;;5.28;1.60;;;18.70;99.90;;;;;;5033088;28;20194;-84
2023/01/07 11:28:58;;;;;;;7.13;1.80;;;18.60;99.90;;;;;;5030021;28;20290;-80
2023/01/07 11:31:50;;;;;;;7.57;1.92;;;18.60;99.90;;;;;;5032975;28;20190;-83
2023/01/07 11:34:26;;;;;;;8.95;1.75;;;18.60;99.90;;;;;;5014588;28;20227;-82
2023/01/07 11:36:57;;;;;;;4.80;1.50;;;18.60;99.90;;;;;;5013616;28;20195;-80
2023/01/07 11:39:30;;;;;;;9.13;1.50;;;18.50;99.90;;;;;;5019460;28;20190;-81
2023/01/07 11:42:37;;;;;;;7.40;1.38;;;18.50;99.90;;;;;;5028725;28;20614;-81
2023/01/07 11:45:11;;;;;;;6.15;1.35;;;18.50;99.90;;;;;;5031161;28;20213;-82
2023/01/07 11:47:49;;;;;;;5.00;1.40;;;18.40;99.90;;;;;;5030333;28;20324;-81
2023/01/07 11:50:31;;;;;;;5.53;1.48;;;18.40;99.90;;;;;;5033141;28;20281;-83
2023/01/07 11:53:06;;;;;;;7.65;1.85;;;18.40;99.90;;;;;;5029506;28;20224;-82
2023/01/07 11:55:37;;;;;;;7.25;2.65;;;18.40;99.90;;;;;;5027188;28;20210;-79
2023/01/07 11:58:19;;;;;;;10.05;3.10;;;18.40;99.90;;;;;;5021733;28;20276;-82
2023/01/07 12:01:03;;;;;;;10.25;4.05;;;18.40;99.90;;;;;;5033017;28;20197;-82
2023/01/07 12:03:36;;;;;;;14.73;6.45;;;18.40;99.90;;;;;;5029352;28;20749;-78
2023/01/07 12:06:10;;;;;;;16.48;6.63;;;18.40;99.90;;;;;;5013381;28;20187;-82
2023/01/07 12:08:44;;;;;;;14.65;5.72;;;18.40;99.90;;;;;;5016645;28;20200;-81
2023/01/07 12:11:15;;;;;;;8.90;2.88;;;18.40;99.90;;;;;;5036110;28;20285;-80
2023/01/07 12:13:51;;;;;;;9.98;2.80;;;18.50;99.90;;;;;;5035262;28;20214;-79
2023/01/07 12:16:29;;;;;;;6.93;2.88;;;18.50;99.90;;;;;;5029786;28;20213;-80
2023/01/07 12:19:15;;;;;;;9.50;2.20;;;18.50;99.90;;;;;;5035268;28;20210;-82
2023/01/07 12:21:55;;;;;;;7.07;1.70;;;18.50;99.90;;;;;;5032796;28;20601;-82
2023/01/07 12:24:40;;;;;;;9.52;1.85;;;18.50;99.90;;;;;;5034836;28;20375;-82
2023/01/07 12:27:23;;;;;;;8.10;2.33;;;18.40;99.90;;;;;;5029275;28;20669;-81
2023/01/07 12:30:07;;;;;;;10.50;2.13;;;18.50;99.90;;;;;;5034509;28;20654;-81
2023/01/07 12:32:49;;;;;;;7.13;1.60;;;18.50;99.90;;;;;;5027107;28;20277;-83
2023/01/07 12:35:26;;;;;;;9.93;1.60;;;18.40;99.90;;;;;;5025228;28;20218;-78
2023/01/07 12:38:01;;;;;;;8.27;1.77;;;18.40;99.90;;;;;;5033184;28;20200;-82
2023/01/07 12:40:34;;;;;;;10.80;1.70;;;18.30;99.90;;;;;;5021040;28;20221;-82
2023/01/07 12:43:12;;;;;;;5.18;1.50;;;18.30;99.90;;;;;;5035442;28;20357;-78
2023/01/07 12:45:47;;;;;;;9.90;1.70;;;18.30;99.90;;;;;;5033578;28;20222;-81
2023/01/07 12:48:25;;;;;;;4.65;1.65;;;18.30;99.90;;;;;;5035399;28;20622;-80
2023/01/07 12:51:01;;;;;;;6.65;1.45;;;18.30;99.90;;;;;;5025763;28;20202;-80
2023/01/07 12:53:40;;;;;;;8.30;1.83;;;18.30;99.90;;;;;;5016560;28;20254;-82
2023/01/07 12:56:17;;;;;;;8.23;1.35;;;18.30;99.90;;;;;;5027032;28;20222;-82
2023/01/07 12:58:52;;;;;;;5.97;1.45;;;18.30;99.90;;;;;;5036033;28;20196;-83
2023/01/07 13:01:31;;;;;;;8.85;1.70;;;18.30;99.90;;;;;;5029553;28;20198;-82
2023/01/07 13:04:10;;;;;;;8.07;1.40;;;18.30;99.90;;;;;;5035077;28;20649;-79
2023/01/07 13:06:50;;;;;;;6.32;1.50;;;18.30;99.90;;;;;;5033517;28;20200;-79
2023/01/07 13:09:29;;;;;;;8.90;1.45;;;18.30;99.90;;;;;;5033893;28;20190;-82
2023/01/07 13:14:56;;;;;;;5.97;1.23;;;18.30;99.90;;;;;;5034557;28;20272;-81
2023/01/07 13:17:29;;;;;;;9.57;1.60;;;18.30;99.90;;;;;;5035868;28;20194;-82
2023/01/07 13:20:00;;;;;;;6.35;1.42;;;18.30;99.90;;;;;;5029850;28;20205;-81
2023/01/07 13:22:38;;;;;;;8.73;1.70;;;18.30;99.90;;;;;;5019164;28;20294;-81
2023/01/07 13:25:22;;;;;;;5.50;1.60;;;18.20;99.90;;;;;;5031126;28;20198;-82
2023/01/07 13:28:19;;;;;;;7.97;1.55;;;18.20;99.90;;;;;;5035369;28;20277;-79